createdAt,value
2022-10-01T00:02:07.997Z,100068.88
2022-10-01T00:04:37.329Z,100045.78
2022-10-01T00:07:09.634Z,100043.28
2022-10-01T00:09:38.052Z,100063.34
2022-10-01T00:12:10.375Z,100057.09
2022-10-01T00:14:39.641Z,100075.13
2022-10-01T00:17:07.196Z,100075.25
2022-10-01T00:19:35.371Z,100049.09
2022-10-01T00:22:04.813Z,100084.75
2022-10-01T00:24:32.413Z,100047.41
2022-10-01T00:27:00.845Z,100041.06
2022-10-01T00:29:29.253Z,100051.28
2022-10-01T00:31:59.221Z,100063.03
2022-10-01T00:34:30.135Z,100068.41
2022-10-01T00:36:57.678Z,100053.41
2022-10-01T00:39:25.390Z,100054.97
2022-10-01T00:41:54.867Z,100055.41
2022-10-01T00:44:36.985Z,100060.06
2022-10-01T00:47:28.492Z,100068.78
2022-10-01T00:49:59.606Z,100067.00
2022-10-01T00:52:32.404Z,100051.63
2022-10-01T00:55:08.647Z,100060.56
2022-10-01T00:57:36.029Z,100041.50
2022-10-01T01:00:07.645Z,100040.22
2022-10-01T01:02:36.204Z,100066.59
2022-10-01T01:05:05.784Z,100060.47
2022-10-01T01:07:34.419Z,100061.75
2022-10-01T01:10:03.109Z,100044.66
2022-10-01T01:12:52.120Z,100071.78
2022-10-01T01:15:40.605Z,100074.81
2022-10-01T01:18:14.089Z,100069.75
2022-10-01T01:21:02.823Z,100051.97
2022-10-01T01:23:36.211Z,100060.50
2022-10-01T01:26:12.178Z,100071.25
2022-10-01T01:28:44.691Z,100067.97
2022-10-01T01:31:18.515Z,100048.25
2022-10-01T01:33:51.176Z,100055.44
2022-10-01T01:36:23.411Z,100052.28
2022-10-01T01:38:56.045Z,100072.13
2022-10-01T01:41:28.466Z,100029.38
2022-10-01T01:44:00.743Z,100052.28
2022-10-01T01:46:34.116Z,100042.47
2022-10-01T01:49:04.599Z,100024.09
2022-10-01T01:51:39.844Z,100053.34
2022-10-01T01:54:08.551Z,100024.53
2022-10-01T01:56:36.390Z,100057.84
2022-10-01T01:59:03.896Z,100043.00
2022-10-01T02:01:41.947Z,100036.47
2022-10-01T02:04:32.252Z,100041.63
2022-10-01T02:07:20.895Z,100036.66
2022-10-01T02:10:03.203Z,100030.53
2022-10-01T02:12:46.463Z,100050.19
2022-10-01T02:15:37.420Z,100038.97
2022-10-01T02:18:20.401Z,100040.56
2022-10-01T02:20:59.372Z,100033.91
2022-10-01T02:23:31.583Z,99996.34
2022-10-01T02:26:09.241Z,100018.28
2022-10-01T02:28:39.827Z,100003.53
2022-10-01T02:31:08.291Z,100033.31
2022-10-01T02:33:36.942Z,99992.59
2022-10-01T02:36:08.064Z,100019.78
2022-10-01T02:38:38.162Z,100001.88
2022-10-01T02:41:10.602Z,99991.41
2022-10-01T02:43:45.251Z,99997.44
2022-10-01T02:46:35.896Z,100007.75
2022-10-01T02:49:04.687Z,100020.84
2022-10-01T02:51:51.520Z,99986.13
2022-10-01T02:54:43.823Z,100016.81
2022-10-01T02:57:27.070Z,99972.94
2022-10-01T03:00:04.843Z,99993.00
2022-10-01T03:02:33.487Z,100012.72
2022-10-01T03:05:01.397Z,100001.66
2022-10-01T03:07:30.920Z,100010.09
2022-10-01T03:09:58.521Z,100006.69
2022-10-01T03:12:26.295Z,99994.38
2022-10-01T03:14:53.925Z,99992.91
2022-10-01T03:17:23.450Z,100009.25
2022-10-01T03:19:50.711Z,99990.34
2022-10-01T03:22:22.911Z,99996.78
2022-10-01T03:24:51.461Z,100008.81
2022-10-01T03:27:21.321Z,99986.97
2022-10-01T03:29:49.682Z,100016.19
2022-10-01T03:32:18.385Z,99982.44
2022-10-01T03:34:45.574Z,99964.09
2022-10-01T03:37:13.410Z,99989.94
2022-10-01T03:39:40.845Z,99984.25
2022-10-01T03:42:10.303Z,99991.94
2022-10-01T03:44:37.756Z,99983.28
2022-10-01T03:47:06.742Z,100004.81
2022-10-01T03:49:37.074Z,99946.81
2022-10-01T03:52:05.606Z,99967.16
2022-10-01T03:54:33.180Z,99992.97
2022-10-01T03:57:00.618Z,99979.28
2022-10-01T03:59:27.788Z,99957.91
2022-10-01T04:01:58.320Z,99977.41
2022-10-01T04:04:26.100Z,99988.47
2022-10-01T04:06:53.329Z,99965.56
2022-10-01T04:09:20.555Z,99984.78
2022-10-01T04:11:48.776Z,99981.50
2022-10-01T04:14:16.056Z,99977.94
2022-10-01T04:16:43.853Z,99985.00
2022-10-01T04:19:11.126Z,99994.88
2022-10-01T04:21:39.447Z,99977.09
2022-10-01T04:24:06.888Z,99976.13
2022-10-01T04:26:34.454Z,99964.44
2022-10-01T04:29:01.670Z,99999.22
2022-10-01T04:31:35.247Z,99999.56
2022-10-01T04:34:03.583Z,99971.38
2022-10-01T04:36:31.420Z,100001.00
2022-10-01T04:39:02.078Z,100000.16
2022-10-01T04:41:31.648Z,99988.47
2022-10-01T04:44:00.304Z,99999.75
2022-10-01T04:46:31.550Z,99971.47
2022-10-01T04:48:58.986Z,99968.72
2022-10-01T04:51:26.560Z,99985.59
2022-10-01T04:53:54.898Z,99990.78
2022-10-01T04:56:22.239Z,99953.03
2022-10-01T04:58:49.429Z,99994.56
2022-10-01T05:01:19.802Z,99976.22
2022-10-01T05:03:47.770Z,100000.91
2022-10-01T05:06:15.030Z,99980.25
2022-10-01T05:08:42.283Z,99995.00
2022-10-01T05:11:09.668Z,99986.47
2022-10-01T05:13:37.190Z,99979.50
2022-10-01T05:16:04.716Z,99995.41
2022-10-01T05:18:32.831Z,100018.41
2022-10-01T05:21:11.786Z,99968.94
2022-10-01T05:23:42.213Z,100014.94
2022-10-01T05:26:09.732Z,99974.28
2022-10-01T05:28:36.963Z,99998.38
2022-10-01T05:31:05.339Z,99983.66
2022-10-01T05:33:34.983Z,99964.81
2022-10-01T05:36:05.517Z,99977.34
2022-10-01T05:38:36.735Z,99963.75
2022-10-01T05:41:05.457Z,99981.03
2022-10-01T05:43:33.005Z,99978.81
2022-10-01T05:46:02.763Z,99945.50
2022-10-01T05:48:34.563Z,99956.78
2022-10-01T05:51:08.512Z,99961.13
2022-10-01T05:53:38.537Z,99962.56
2022-10-01T05:56:07.275Z,99930.97
2022-10-01T05:58:35.740Z,99946.88
2022-10-01T06:01:04.516Z,99950.16
2022-10-01T06:03:31.957Z,99977.63
2022-10-01T06:06:00.992Z,99994.47
2022-10-01T06:08:28.954Z,99958.06
2022-10-01T06:11:01.930Z,99963.25
2022-10-01T06:13:29.564Z,99965.50
2022-10-01T06:15:56.966Z,99958.53
2022-10-01T06:18:24.376Z,99995.94
2022-10-01T06:20:52.886Z,99979.00
2022-10-01T06:23:20.330Z,99962.84
2022-10-01T06:25:47.627Z,99952.31
2022-10-01T06:28:15.602Z,99925.63
2022-10-01T06:30:43.920Z,99965.78
2022-10-01T06:33:16.929Z,99949.53
2022-10-01T06:35:48.398Z,99934.75
2022-10-01T06:38:16.885Z,99917.16
2022-10-01T06:40:44.598Z,99910.06
2022-10-01T06:43:14.450Z,99936.53
2022-10-01T06:45:42.858Z,99911.38
2022-10-01T06:48:14.845Z,99934.63
2022-10-01T06:50:45.362Z,99891.13
2022-10-01T06:53:18.663Z,99927.59
2022-10-01T06:55:50.146Z,99917.09
2022-10-01T06:58:23.262Z,99932.28
2022-10-01T07:00:51.175Z,99883.72
2022-10-01T07:03:21.060Z,99921.66
2022-10-01T07:05:50.393Z,99950.94
2022-10-01T07:08:18.266Z,99913.75
2022-10-01T07:10:46.769Z,99925.13
2022-10-01T07:13:18.808Z,99911.03
2022-10-01T07:15:46.728Z,99902.78
2022-10-01T07:18:14.524Z,99917.53
2022-10-01T07:20:43.930Z,99895.84
2022-10-01T07:23:13.174Z,99906.91
2022-10-01T07:25:41.636Z,99891.53
2022-10-01T07:28:16.766Z,99889.06
2022-10-01T07:31:00.660Z,99883.63
2022-10-01T07:33:28.585Z,99892.78
2022-10-01T07:35:56.319Z,99897.34
2022-10-01T07:38:23.592Z,99899.63
2022-10-01T07:40:52.635Z,99903.34
2022-10-01T07:43:19.952Z,99898.78
2022-10-01T07:45:55.375Z,99871.63
2022-10-01T07:48:22.981Z,99876.66
2022-10-01T07:51:15.437Z,99910.59
2022-10-01T07:53:42.915Z,99892.56
2022-10-01T07:56:11.533Z,99883.59
2022-10-01T07:58:38.916Z,99860.00
2022-10-01T08:01:08.413Z,99874.66
2022-10-01T08:03:38.296Z,99848.94
2022-10-01T08:06:09.704Z,99863.19
2022-10-01T08:08:37.137Z,99872.59
2022-10-01T08:11:10.299Z,99840.22
2022-10-01T08:13:37.783Z,99869.88
2022-10-01T08:16:07.590Z,99816.47
2022-10-01T08:18:35.154Z,99830.59
2022-10-01T08:21:04.510Z,99830.59
2022-10-01T08:23:35.002Z,99819.81
2022-10-01T08:26:06.194Z,99810.19
2022-10-01T08:28:34.790Z,99845.94
2022-10-01T08:31:12.106Z,99842.34
2022-10-01T08:33:39.764Z,99815.81
2022-10-01T08:36:10.426Z,99844.94
2022-10-01T08:38:38.138Z,99811.63
2022-10-01T08:41:35.337Z,99810.75
2022-10-01T08:44:06.389Z,99823.19
2022-10-01T08:46:37.499Z,99814.75
2022-10-01T08:49:23.871Z,99818.22
2022-10-01T08:52:03.825Z,99785.59
2022-10-01T08:54:46.902Z,99822.19
2022-10-01T08:57:19.806Z,99801.75
2022-10-01T08:59:56.067Z,99800.31
2022-10-01T09:02:25.476Z,99773.75
2022-10-01T09:05:21.482Z,99810.38
2022-10-01T09:08:10.565Z,99789.63
2022-10-01T09:10:44.088Z,99803.78
2022-10-01T09:13:22.895Z,99781.91
2022-10-01T09:16:05.637Z,99799.00
2022-10-01T09:18:48.957Z,99802.22
2022-10-01T09:21:24.892Z,99803.41
2022-10-01T09:24:04.485Z,99815.91
2022-10-01T09:26:32.213Z,99776.56
2022-10-01T09:29:03.300Z,99784.97
2022-10-01T09:31:49.952Z,99767.22
2022-10-01T09:34:37.721Z,99782.41
2022-10-01T09:37:33.556Z,99783.75
2022-10-01T09:40:57.303Z,99753.31
2022-10-01T09:43:30.434Z,99768.72
2022-10-01T09:45:58.480Z,99763.34
2022-10-01T09:48:29.909Z,99775.72
2022-10-01T09:51:11.046Z,99777.88
2022-10-01T09:53:47.016Z,99749.19
2022-10-01T09:56:31.336Z,99746.53
2022-10-01T09:59:05.523Z,99752.53
2022-10-01T10:01:50.387Z,99744.97
2022-10-01T10:04:25.375Z,99741.97
2022-10-01T10:07:01.350Z,99743.66
2022-10-01T10:09:32.174Z,99712.31
2022-10-01T10:12:00.384Z,99730.81
2022-10-01T10:14:34.243Z,99704.47
2022-10-01T10:17:12.738Z,99723.81
2022-10-01T10:19:41.721Z,99717.34
2022-10-01T10:22:25.040Z,99707.50
2022-10-01T10:24:53.852Z,99711.06
2022-10-01T10:27:27.905Z,99700.13
2022-10-01T10:30:29.171Z,99674.31
2022-10-01T10:33:05.379Z,99664.00
2022-10-01T10:35:32.829Z,99684.88
2022-10-01T10:38:00.374Z,99687.91
2022-10-01T10:40:32.949Z,99689.66
2022-10-01T10:43:05.762Z,99670.03
2022-10-01T10:45:38.427Z,99680.22
2022-10-01T10:48:12.064Z,99673.94
2022-10-01T10:50:43.665Z,99698.00
2022-10-01T10:53:33.673Z,99692.44
2022-10-01T10:56:06.607Z,99665.13
2022-10-01T10:58:39.938Z,99663.91
2022-10-01T11:01:19.820Z,99685.16
2022-10-01T11:03:50.358Z,99692.34
2022-10-01T11:06:18.901Z,99662.81
2022-10-01T11:08:57.288Z,99646.34
2022-10-01T11:11:42.031Z,99677.91
2022-10-01T11:14:22.809Z,99674.63
2022-10-01T11:17:05.146Z,99666.72
2022-10-01T11:20:25.616Z,99670.44
2022-10-01T11:23:05.000Z,99663.81
2022-10-01T11:26:15.001Z,99661.94
2022-10-01T11:29:06.594Z,99656.44
2022-10-01T11:32:05.660Z,99656.28
2022-10-01T11:34:52.054Z,99619.34
2022-10-01T11:37:44.294Z,99637.78
2022-10-01T11:40:28.252Z,99637.78
2022-10-01T11:43:01.567Z,99607.06
2022-10-01T11:45:36.898Z,99614.00
2022-10-01T11:48:15.812Z,99629.22
2022-10-01T11:50:49.239Z,99634.75
2022-10-01T11:53:31.097Z,99620.31
2022-10-01T11:56:21.226Z,99621.59
2022-10-01T11:58:54.901Z,99620.06
2022-10-01T12:01:46.220Z,99595.56
2022-10-01T12:04:38.116Z,99618.06
2022-10-01T12:07:22.045Z,99618.06
2022-10-01T12:09:55.560Z,99614.28
2022-10-01T12:12:31.335Z,99607.53
2022-10-01T12:15:10.198Z,99579.75
2022-10-01T12:17:47.035Z,99604.66
2022-10-01T12:20:46.929Z,99590.06
2022-10-01T12:23:24.819Z,99569.69
2022-10-01T12:26:04.866Z,99593.44
2022-10-01T12:28:32.674Z,99586.59
2022-10-01T12:31:49.769Z,99555.78
2022-10-01T12:34:57.044Z,99568.22
2022-10-01T12:37:40.807Z,99582.22
2022-10-01T12:40:30.809Z,99564.03
2022-10-01T12:43:08.695Z,99564.63
2022-10-01T12:46:05.145Z,99573.72
2022-10-01T12:48:55.474Z,99579.00
2022-10-01T12:51:27.014Z,99565.13
2022-10-01T12:54:18.586Z,99573.84
2022-10-01T12:57:10.866Z,99558.81
2022-10-01T12:59:44.669Z,99574.31
2022-10-01T13:02:31.484Z,99573.84
2022-10-01T13:04:58.811Z,99571.38
2022-10-01T13:07:47.075Z,99562.03
2022-10-01T13:10:59.065Z,99545.44
2022-10-01T13:13:34.268Z,99540.22
2022-10-01T13:16:40.421Z,99551.75
2022-10-01T13:19:25.163Z,99539.94
2022-10-01T13:22:27.639Z,99549.06
2022-10-01T13:25:06.866Z,99522.31
2022-10-01T13:27:50.569Z,99544.66
2022-10-01T13:30:23.233Z,99534.94
2022-10-01T13:33:01.263Z,99529.34
2022-10-01T13:35:32.899Z,99533.28
2022-10-01T13:38:14.861Z,99520.78
2022-10-01T13:40:42.840Z,99529.88
2022-10-01T13:43:23.121Z,99530.28
2022-10-01T13:45:53.779Z,99501.84
2022-10-01T13:48:31.848Z,99521.22
2022-10-01T13:51:05.268Z,99541.16
2022-10-01T13:53:41.841Z,99535.31
2022-10-01T13:56:15.722Z,99522.28
2022-10-01T13:58:45.186Z,99506.09
2022-10-01T14:01:23.641Z,99525.16
2022-10-01T14:04:21.731Z,99524.16
2022-10-01T14:06:57.714Z,99515.06
2022-10-01T14:09:32.198Z,99488.28
2022-10-01T14:13:00.565Z,99517.66
2022-10-01T14:16:49.215Z,99485.97
2022-10-01T14:20:04.429Z,99472.91
2022-10-01T14:25:02.603Z,99491.97
2022-10-01T14:31:36.561Z,99453.75
2022-10-01T14:34:31.957Z,99471.66
2022-10-01T14:37:36.083Z,99438.72
2022-10-01T14:40:49.020Z,99462.06
2022-10-01T14:43:34.365Z,99443.38
2022-10-01T14:46:53.361Z,99452.38
2022-10-01T14:49:43.554Z,99488.94
2022-10-01T14:52:41.542Z,99458.38
2022-10-01T14:58:13.671Z,99444.06
2022-10-01T15:07:35.873Z,99417.00
2022-10-01T15:13:34.186Z,99424.97
2022-10-01T15:19:35.880Z,99403.31
2022-10-01T15:23:57.496Z,99390.09
2022-10-01T15:26:33.420Z,99411.16
2022-10-01T15:29:20.749Z,99385.75
2022-10-01T15:32:25.653Z,99377.53
2022-10-01T15:35:37.703Z,99408.91
2022-10-01T15:38:22.214Z,99405.94
2022-10-01T15:41:13.987Z,99388.78
2022-10-01T15:43:50.925Z,99346.97
2022-10-01T15:46:36.986Z,99379.88
2022-10-01T15:49:29.615Z,99353.25
2022-10-01T15:53:09.442Z,99365.38
2022-10-01T15:56:17.660Z,99364.94
2022-10-01T16:02:36.155Z,99322.44
2022-10-01T16:05:51.292Z,99342.09
2022-10-01T16:09:40.964Z,99347.81
2022-10-01T16:12:24.141Z,99342.25
2022-10-01T16:15:08.498Z,99340.44
2022-10-01T16:18:03.081Z,99318.25
2022-10-01T16:20:35.392Z,99311.59
2022-10-01T16:23:41.277Z,99322.50
2022-10-01T16:26:28.794Z,99312.59
2022-10-01T16:29:09.276Z,99310.06
2022-10-01T16:32:25.656Z,99297.66
2022-10-01T16:35:43.788Z,99269.09
2022-10-01T16:38:36.233Z,99284.97
2022-10-01T16:42:22.208Z,99287.91
2022-10-01T16:45:15.203Z,99251.50
2022-10-01T16:48:07.962Z,99255.88
2022-10-01T16:50:59.602Z,99282.63
2022-10-01T16:53:28.152Z,99255.34
2022-10-01T16:56:24.825Z,99250.84
2022-10-01T16:59:02.996Z,99237.91
2022-10-01T17:01:41.730Z,99253.81
2022-10-01T17:04:18.630Z,99221.34
2022-10-01T17:07:17.154Z,99254.50
2022-10-01T17:09:56.138Z,99232.22
2022-10-01T17:12:23.866Z,99241.00
2022-10-01T17:14:54.172Z,99213.56
2022-10-01T17:17:41.232Z,99212.97
2022-10-01T17:20:11.521Z,99235.41
2022-10-01T17:27:25.942Z,99205.88
2022-10-01T17:29:58.028Z,99197.63
2022-10-01T17:32:33.033Z,99182.31
2022-10-01T17:35:11.436Z,99204.22
2022-10-01T17:37:39.239Z,99165.47
2022-10-01T17:40:07.758Z,99180.81
2022-10-01T17:42:36.358Z,99181.22
2022-10-01T17:45:07.317Z,99179.28
2022-10-01T17:47:34.621Z,99159.75
2022-10-01T17:50:03.100Z,99159.22
2022-10-01T17:52:32.264Z,99151.00
2022-10-01T17:54:59.483Z,99166.88
2022-10-01T17:57:26.632Z,99157.00
2022-10-01T17:59:53.679Z,99143.88
2022-10-01T18:02:41.065Z,99152.81
2022-10-01T18:05:09.864Z,99137.22
2022-10-01T18:07:37.357Z,99127.91
2022-10-01T18:10:06.171Z,99120.94
2022-10-01T18:12:34.437Z,99117.44
2022-10-01T18:15:03.310Z,99123.47
2022-10-01T18:17:33.022Z,99119.41
2022-10-01T18:20:00.556Z,99112.59
2022-10-01T18:22:29.165Z,99114.69
2022-10-01T18:24:56.335Z,99096.19
2022-10-01T18:27:23.369Z,99078.06
2022-10-01T18:29:50.471Z,99074.63
2022-10-01T18:32:27.299Z,99091.84
2022-10-01T18:34:59.850Z,99078.91
2022-10-01T18:37:53.667Z,99072.66
2022-10-01T18:40:27.511Z,99073.78
2022-10-01T18:43:20.756Z,99077.25
2022-10-01T18:46:15.530Z,99081.84
2022-10-01T18:48:49.663Z,99074.03
2022-10-01T18:51:55.742Z,99083.38
2022-10-01T18:54:57.255Z,99104.78
2022-10-01T18:58:05.906Z,99120.72
2022-10-01T19:01:06.793Z,99089.00
2022-10-01T19:04:00.465Z,99073.13
2022-10-01T19:06:34.057Z,99084.25
2022-10-01T19:09:19.404Z,99087.84
2022-10-01T19:12:02.497Z,99078.53
2022-10-01T19:14:44.886Z,99070.88
2022-10-01T19:17:37.611Z,99069.22
2022-10-01T19:20:25.310Z,99074.94
2022-10-01T19:23:02.727Z,99053.19
2022-10-01T19:25:50.364Z,99073.94
2022-10-01T19:28:52.662Z,99063.13
2022-10-01T19:31:30.313Z,99056.84
2022-10-01T19:34:05.434Z,99007.97
2022-10-01T19:36:37.505Z,98989.59
2022-10-01T19:39:11.044Z,99010.88
2022-10-01T19:42:22.869Z,99028.28
2022-10-01T19:45:02.272Z,99024.78
2022-10-01T19:47:36.898Z,99017.69
2022-10-01T19:50:21.828Z,98999.00
2022-10-01T19:53:26.012Z,99005.69
2022-10-01T19:55:54.574Z,98992.72
2022-10-01T19:58:23.629Z,98998.69
2022-10-01T20:01:43.050Z,98998.69
2022-10-01T20:04:21.460Z,98992.97
2022-10-01T20:06:48.584Z,98980.19
2022-10-01T20:09:27.222Z,98982.00
2022-10-01T20:12:11.429Z,98969.91
2022-10-01T20:15:09.355Z,98974.47
2022-10-01T20:17:51.791Z,98963.50
2022-10-01T20:20:47.606Z,98956.94
2022-10-01T20:23:42.182Z,98956.69
2022-10-01T20:26:55.577Z,98958.63
2022-10-01T20:29:50.452Z,98956.94
2022-10-01T20:32:17.513Z,98952.50
2022-10-01T20:35:15.579Z,98958.63
2022-10-01T20:38:13.956Z,98951.94
2022-10-01T20:40:49.608Z,98945.88
2022-10-01T20:43:46.272Z,98951.16
2022-10-01T20:46:40.735Z,98957.13
2022-10-01T20:49:12.093Z,98952.81
2022-10-01T20:52:09.774Z,98952.53
2022-10-01T20:54:41.611Z,98950.63
2022-10-01T20:57:20.944Z,98947.69
2022-10-01T20:59:53.512Z,98932.53
2022-10-01T21:03:12.525Z,98943.84
2022-10-01T21:06:16.849Z,98937.72
2022-10-01T21:09:19.215Z,98943.00
2022-10-01T21:11:51.375Z,98949.97
2022-10-01T21:14:33.641Z,98926.44
2022-10-01T21:17:21.564Z,98952.31
2022-10-01T21:19:58.062Z,98941.75
2022-10-01T21:23:14.474Z,98933.84
2022-10-01T21:26:00.264Z,98928.72
2022-10-01T21:28:36.713Z,98939.69
2022-10-01T21:31:27.278Z,98939.56
2022-10-01T21:34:11.912Z,98920.66
2022-10-01T21:36:52.481Z,98941.66
2022-10-01T21:39:34.018Z,98926.22
2022-10-01T21:42:21.293Z,98933.34
2022-10-01T21:45:17.116Z,98914.16
2022-10-01T21:48:31.145Z,98943.78
2022-10-01T21:51:14.388Z,98932.38
2022-10-01T21:54:11.163Z,98932.38
2022-10-01T21:56:47.563Z,98933.06
2022-10-01T21:59:42.653Z,98931.13
2022-10-01T22:02:26.842Z,98941.69
2022-10-01T22:04:58.813Z,98922.06
2022-10-01T22:07:35.653Z,98930.16
2022-10-01T22:10:17.279Z,98930.59
2022-10-01T22:12:51.411Z,98941.94
2022-10-01T22:15:24.502Z,98937.91
2022-10-01T22:17:54.827Z,98920.13
2022-10-01T22:20:27.642Z,98945.00
2022-10-01T22:23:01.643Z,98942.25
2022-10-01T22:25:30.333Z,98958.88
2022-10-01T22:28:15.059Z,98930.84
2022-10-01T22:30:43.862Z,98952.78
2022-10-01T22:33:22.476Z,98951.63
2022-10-01T22:36:14.818Z,98947.91
2022-10-01T22:38:56.094Z,98937.91
2022-10-01T22:41:43.382Z,98948.19
2022-10-01T22:44:19.843Z,98966.78
2022-10-01T22:47:06.220Z,98945.94
2022-10-01T22:49:45.103Z,98962.16
2022-10-01T22:52:33.178Z,98947.53
2022-10-01T22:55:24.904Z,98975.75
2022-10-01T22:58:20.221Z,98966.56
2022-10-01T23:01:03.147Z,98960.03
2022-10-01T23:03:36.436Z,98959.03
2022-10-01T23:06:30.814Z,98948.97
2022-10-01T23:09:53.242Z,98957.41
2022-10-01T23:12:34.733Z,98961.56
2022-10-01T23:15:20.402Z,98931.88
2022-10-01T23:18:13.805Z,98945.50
2022-10-01T23:20:57.215Z,98951.19
2022-10-01T23:23:32.273Z,98960.63
2022-10-01T23:26:15.912Z,98966.16
2022-10-01T23:29:07.420Z,98963.75
2022-10-01T23:31:49.385Z,98945.88
2022-10-01T23:34:30.857Z,98955.31
2022-10-01T23:37:22.838Z,98963.66
2022-10-01T23:39:55.593Z,98971.81
2022-10-01T23:42:29.193Z,98949.53
2022-10-01T23:45:34.677Z,98967.66
2022-10-01T23:48:30.341Z,98949.53
2022-10-01T23:51:21.702Z,98969.84
2022-10-01T23:54:18.247Z,98983.25
2022-10-01T23:56:53.290Z,98982.78
2022-10-01T23:59:42.940Z,98980.22
